createdAt,value
2017-10-22T00:01:53.350Z,10.00
2017-10-22T00:04:19.920Z,9.90
2017-10-22T00:06:46.547Z,10.00
2017-10-22T00:09:13.098Z,9.90
2017-10-22T00:11:39.667Z,9.80
2017-10-22T00:14:06.311Z,9.80
2017-10-22T00:16:32.887Z,9.80
2017-10-22T00:18:59.823Z,9.80
2017-10-22T00:21:26.786Z,9.90
2017-10-22T00:23:53.346Z,9.90
2017-10-22T00:26:19.911Z,9.90
2017-10-22T00:28:46.539Z,9.80
2017-10-22T00:31:13.111Z,9.80
2017-10-22T00:33:39.779Z,9.80
2017-10-22T00:36:06.407Z,9.80
2017-10-22T00:38:33.004Z,9.80
2017-10-22T00:40:59.996Z,9.80
2017-10-22T00:43:26.643Z,9.80
2017-10-22T00:45:53.621Z,9.80
2017-10-22T00:48:20.198Z,9.80
2017-10-22T00:50:47.187Z,9.90
2017-10-22T00:53:13.776Z,9.90
2017-10-22T00:55:40.366Z,10.00
2017-10-22T00:58:07.405Z,10.00
2017-10-22T01:00:34.360Z,10.00
2017-10-22T01:03:00.959Z,10.00
2017-10-22T01:05:27.599Z,10.10
2017-10-22T01:07:54.171Z,10.10
2017-10-22T01:10:20.824Z,10.10
2017-10-22T01:12:47.535Z,10.10
2017-10-22T01:15:14.543Z,10.00
2017-10-22T01:17:41.138Z,10.00
2017-10-22T01:20:07.816Z,10.10
2017-10-22T01:22:34.503Z,10.00
2017-10-22T01:25:01.151Z,10.00
2017-10-22T01:27:28.220Z,10.00
2017-10-22T01:29:54.846Z,10.00
2017-10-22T01:32:21.495Z,10.00
2017-10-22T01:34:48.299Z,10.00
2017-10-22T01:37:14.939Z,10.10
2017-10-22T01:39:41.611Z,10.10
2017-10-22T01:42:08.374Z,10.00
2017-10-22T01:44:35.023Z,10.00
2017-10-22T01:47:01.671Z,9.90
2017-10-22T01:49:28.434Z,9.90
2017-10-22T01:51:55.072Z,9.80
2017-10-22T01:54:21.706Z,9.90
2017-10-22T01:56:48.463Z,9.90
2017-10-22T01:59:15.475Z,9.80
2017-10-22T02:01:42.076Z,9.80
2017-10-22T02:04:08.836Z,9.80
2017-10-22T02:06:35.863Z,9.80
2017-10-22T02:09:02.903Z,9.80
2017-10-22T02:11:29.594Z,9.70
2017-10-22T02:13:56.239Z,9.80
2017-10-22T02:16:23.167Z,9.80
2017-10-22T02:18:50.171Z,9.80
2017-10-22T02:21:16.827Z,9.80
2017-10-22T02:23:43.815Z,9.90
2017-10-22T02:26:10.607Z,9.90
2017-10-22T02:28:37.216Z,9.90
2017-10-22T02:31:03.833Z,9.90
2017-10-22T02:33:30.490Z,9.90
2017-10-22T02:35:57.248Z,10.00
2017-10-22T02:38:23.842Z,10.00
2017-10-22T02:40:50.648Z,10.10
2017-10-22T02:43:17.250Z,10.10
2017-10-22T02:45:43.832Z,10.10
2017-10-22T02:48:10.471Z,10.20
2017-10-22T02:50:37.498Z,10.20
2017-10-22T02:53:04.452Z,10.20
2017-10-22T02:55:31.082Z,10.20
2017-10-22T02:57:57.640Z,10.20
2017-10-22T03:00:24.273Z,10.20
2017-10-22T03:02:50.915Z,10.20
2017-10-22T03:05:17.923Z,10.10
2017-10-22T03:07:44.539Z,10.10
2017-10-22T03:10:11.186Z,10.10
2017-10-22T03:12:38.175Z,10.10
2017-10-22T03:15:04.786Z,10.10
2017-10-22T03:17:31.476Z,10.20
2017-10-22T03:19:58.047Z,10.30
2017-10-22T03:22:24.615Z,10.20
2017-10-22T03:24:51.236Z,10.20
2017-10-22T03:27:17.775Z,10.10
2017-10-22T03:29:44.339Z,10.10
2017-10-22T03:32:10.983Z,10.00
2017-10-22T03:34:37.936Z,9.90
2017-10-22T03:37:04.640Z,9.90
2017-10-22T03:39:31.253Z,9.80
2017-10-22T03:41:58.200Z,9.80
2017-10-22T03:44:24.759Z,9.80
2017-10-22T03:46:51.379Z,9.80
2017-10-22T03:49:17.931Z,9.80
2017-10-22T03:51:44.502Z,9.90
2017-10-22T03:54:11.127Z,9.80
2017-10-22T03:56:37.714Z,9.80
2017-10-22T03:59:04.310Z,9.80
2017-10-22T04:01:31.315Z,9.80
2017-10-22T04:03:57.871Z,9.80
2017-10-22T04:06:24.797Z,9.70
2017-10-22T04:08:51.975Z,9.60
2017-10-22T04:11:18.530Z,9.60
2017-10-22T04:13:45.091Z,9.70
2017-10-22T04:16:11.719Z,9.70
2017-10-22T04:18:38.268Z,9.60
2017-10-22T04:21:04.868Z,9.60
2017-10-22T04:23:31.574Z,9.50
2017-10-22T04:25:58.125Z,9.50
2017-10-22T04:28:24.676Z,9.50
2017-10-22T04:30:51.471Z,9.40
2017-10-22T04:33:18.041Z,9.40
2017-10-22T04:35:44.967Z,9.50
2017-10-22T04:38:11.991Z,9.50
2017-10-22T04:40:38.586Z,9.60
2017-10-22T04:43:05.190Z,9.60
2017-10-22T04:45:32.151Z,9.50
2017-10-22T04:47:58.707Z,9.50
2017-10-22T04:50:25.268Z,9.60
2017-10-22T04:52:51.891Z,9.50
2017-10-22T04:55:18.439Z,9.50
2017-10-22T04:57:44.999Z,9.50
2017-10-22T05:00:11.615Z,9.60
2017-10-22T05:02:38.179Z,9.60
2017-10-22T05:05:04.747Z,9.60
2017-10-22T05:07:31.494Z,9.60
2017-10-22T05:09:58.255Z,9.60
2017-10-22T05:12:24.815Z,9.40
2017-10-22T05:14:51.535Z,9.40
2017-10-22T05:17:18.471Z,9.40
2017-10-22T05:19:45.040Z,9.40
2017-10-22T05:22:11.689Z,9.40
2017-10-22T05:24:38.637Z,9.30
2017-10-22T05:27:05.203Z,9.30
2017-10-22T05:29:31.846Z,9.20
2017-10-22T05:31:58.407Z,9.20
2017-10-22T05:34:24.967Z,9.20
2017-10-22T05:36:51.810Z,9.30
2017-10-22T05:39:18.415Z,9.30
2017-10-22T05:41:44.967Z,9.40
2017-10-22T05:44:12.146Z,9.10
2017-10-22T05:46:38.955Z,9.10
2017-10-22T05:49:05.534Z,9.10
2017-10-22T05:51:32.230Z,9.10
2017-10-22T05:53:58.803Z,9.10
2017-10-22T05:56:26.030Z,9.10
2017-10-22T05:58:52.751Z,9.10
2017-10-22T06:01:19.695Z,9.10
2017-10-22T06:03:46.258Z,9.10
2017-10-22T06:06:12.966Z,9.10
2017-10-22T06:08:40.023Z,9.10
2017-10-22T06:11:06.987Z,9.10
2017-10-22T06:13:34.066Z,9.10
2017-10-22T06:16:00.676Z,9.10
2017-10-22T06:18:27.309Z,9.10
2017-10-22T06:20:54.007Z,9.20
2017-10-22T06:23:20.671Z,9.10
2017-10-22T06:25:47.243Z,9.20
2017-10-22T06:28:13.936Z,9.20
2017-10-22T06:30:40.512Z,9.20
2017-10-22T06:33:07.111Z,9.30
2017-10-22T06:35:33.814Z,9.30
2017-10-22T06:38:00.451Z,9.30
2017-10-22T06:40:27.108Z,9.20
2017-10-22T06:42:53.923Z,9.20
2017-10-22T06:45:20.519Z,9.30
2017-10-22T06:47:47.107Z,9.30
2017-10-22T06:50:13.787Z,9.20
2017-10-22T06:52:40.415Z,9.30
2017-10-22T06:55:07.132Z,9.20
2017-10-22T06:57:33.887Z,9.20
2017-10-22T07:00:00.527Z,9.20
2017-10-22T07:02:27.195Z,9.30
2017-10-22T07:04:53.943Z,9.20
2017-10-22T07:07:20.582Z,9.20
2017-10-22T07:09:47.175Z,9.30
2017-10-22T07:12:13.887Z,9.30
2017-10-22T07:14:40.500Z,9.30
2017-10-22T07:17:07.086Z,9.30
2017-10-22T07:19:34.176Z,9.30
2017-10-22T07:22:00.747Z,9.30
2017-10-22T07:24:28.244Z,9.30
2017-10-22T07:26:54.883Z,9.30
2017-10-22T07:29:21.447Z,9.40
2017-10-22T07:31:48.010Z,9.40
2017-10-22T07:34:14.648Z,9.50
2017-10-22T07:36:41.267Z,9.50
2017-10-22T07:39:07.956Z,9.60
2017-10-22T07:41:34.617Z,9.70
2017-10-22T07:44:01.256Z,9.80
2017-10-22T07:46:28.216Z,10.10
2017-10-22T07:48:54.906Z,10.10
2017-10-22T07:51:21.955Z,10.30
2017-10-22T07:53:48.584Z,10.30
2017-10-22T07:56:15.201Z,10.50
2017-10-22T07:58:41.753Z,10.60
2017-10-22T08:01:08.311Z,10.70
2017-10-22T08:03:35.492Z,10.60
2017-10-22T08:06:02.095Z,10.60
2017-10-22T08:08:28.659Z,10.50
2017-10-22T08:10:55.276Z,10.50
2017-10-22T08:13:21.839Z,10.40
2017-10-22T08:15:48.783Z,10.50
2017-10-22T08:18:15.436Z,10.50
2017-10-22T08:20:42.016Z,10.50
2017-10-22T08:23:08.588Z,10.60
2017-10-22T08:25:35.215Z,10.60
2017-10-22T08:28:01.780Z,10.60
2017-10-22T08:30:28.370Z,10.60
2017-10-22T08:32:55.091Z,10.60
2017-10-22T08:35:21.657Z,10.60
2017-10-22T08:37:48.222Z,10.60
2017-10-22T08:40:14.920Z,10.60
2017-10-22T08:42:41.543Z,10.60
2017-10-22T08:45:08.216Z,10.70
2017-10-22T08:47:35.015Z,10.70
2017-10-22T08:50:01.610Z,10.70
2017-10-22T08:52:28.268Z,10.60
2017-10-22T08:54:55.024Z,10.70
2017-10-22T08:57:21.663Z,10.80
2017-10-22T08:59:48.287Z,10.80
2017-10-22T09:02:14.967Z,10.80
2017-10-22T09:04:41.594Z,10.90
2017-10-22T09:07:08.236Z,10.90
2017-10-22T09:09:34.948Z,11.00
2017-10-22T09:12:01.555Z,10.90
2017-10-22T09:14:28.155Z,10.90
2017-10-22T09:16:54.799Z,11.00
2017-10-22T09:19:21.391Z,11.00
2017-10-22T09:21:48.011Z,11.10
2017-10-22T09:24:14.691Z,11.10
2017-10-22T09:26:41.344Z,11.20
2017-10-22T09:29:07.963Z,11.20
2017-10-22T09:31:34.669Z,11.30
2017-10-22T09:34:01.242Z,11.40
2017-10-22T09:36:27.912Z,11.50
2017-10-22T09:38:55.015Z,11.40
2017-10-22T09:41:21.669Z,11.50
2017-10-22T09:43:48.671Z,11.30
2017-10-22T09:46:15.405Z,11.30
2017-10-22T09:48:42.145Z,11.30
2017-10-22T09:51:08.811Z,11.30
2017-10-22T09:53:35.668Z,11.40
2017-10-22T09:56:02.416Z,11.40
2017-10-22T09:58:31.252Z,11.40
2017-10-22T10:00:57.975Z,11.40
2017-10-22T10:03:24.583Z,11.40
2017-10-22T10:05:51.220Z,11.40
2017-10-22T10:08:17.894Z,11.40
2017-10-22T10:10:44.905Z,11.40
2017-10-22T10:13:11.920Z,11.40
2017-10-22T10:15:38.659Z,11.40
2017-10-22T10:18:05.629Z,11.50
2017-10-22T10:20:32.287Z,11.50
2017-10-22T10:22:58.927Z,11.50
2017-10-22T10:25:25.556Z,11.50
2017-10-22T10:27:52.622Z,11.50
2017-10-22T10:30:19.599Z,11.50
2017-10-22T10:32:46.429Z,11.50
2017-10-22T10:35:13.383Z,11.60
2017-10-22T10:37:40.248Z,11.60
2017-10-22T10:40:06.899Z,11.60
2017-10-22T10:42:33.594Z,11.50
2017-10-22T10:45:00.801Z,11.50
2017-10-22T10:47:27.415Z,11.60
2017-10-22T10:49:53.987Z,11.50
2017-10-22T10:52:20.660Z,11.50
2017-10-22T10:54:47.279Z,11.60
2017-10-22T10:57:13.863Z,11.60
2017-10-22T10:59:40.864Z,11.70
2017-10-22T11:02:22.327Z,11.60
2017-10-22T11:04:49.695Z,11.60
2017-10-22T11:07:16.334Z,11.50
2017-10-22T11:09:42.963Z,11.50
2017-10-22T11:12:10.031Z,11.60
2017-10-22T11:14:36.701Z,11.60
2017-10-22T11:17:03.872Z,11.40
2017-10-22T11:19:30.656Z,11.40
2017-10-22T11:21:57.229Z,11.40
2017-10-22T11:24:23.811Z,11.50
2017-10-22T11:26:51.019Z,11.60
2017-10-22T11:29:17.588Z,11.70
2017-10-22T11:31:44.575Z,11.70
2017-10-22T11:34:11.587Z,11.70
2017-10-22T11:36:38.252Z,11.70
2017-10-22T11:39:04.974Z,12.00
2017-10-22T11:41:32.006Z,12.40
2017-10-22T11:43:59.039Z,12.50
2017-10-22T11:46:25.966Z,12.80
2017-10-22T11:48:52.655Z,12.80
2017-10-22T11:51:19.243Z,13.00
2017-10-22T11:53:45.811Z,13.10
2017-10-22T11:56:12.431Z,13.30
2017-10-22T11:58:38.991Z,13.10
2017-10-22T12:01:05.550Z,12.80
2017-10-22T12:03:32.176Z,12.90
2017-10-22T12:05:58.739Z,13.10
2017-10-22T12:08:25.736Z,13.40
2017-10-22T12:10:52.739Z,13.40
2017-10-22T12:13:19.413Z,13.40
2017-10-22T12:15:46.443Z,13.30
2017-10-22T12:18:13.459Z,13.10
2017-10-22T12:20:40.132Z,13.10
2017-10-22T12:23:06.760Z,12.80
2017-10-22T12:25:33.421Z,12.70
2017-10-22T12:28:00.015Z,12.60
2017-10-22T12:30:26.631Z,12.50
2017-10-22T12:32:53.263Z,12.50
2017-10-22T12:35:19.827Z,12.50
2017-10-22T12:37:46.758Z,12.40
2017-10-22T12:40:13.792Z,12.40
2017-10-22T12:42:40.351Z,12.40
2017-10-22T12:45:06.925Z,12.40
2017-10-22T12:47:33.967Z,12.40
2017-10-22T12:50:00.963Z,12.40
2017-10-22T12:52:27.551Z,12.40
2017-10-22T12:54:54.159Z,12.40
2017-10-22T12:57:20.720Z,12.30
2017-10-22T12:59:47.287Z,12.20
2017-10-22T13:02:13.931Z,12.20
2017-10-22T13:04:40.605Z,12.20
2017-10-22T13:07:07.636Z,12.20
2017-10-22T13:09:34.461Z,12.20
2017-10-22T13:12:01.085Z,12.30
2017-10-22T13:14:28.029Z,12.20
2017-10-22T13:16:55.249Z,12.10
2017-10-22T13:19:22.380Z,12.00
2017-10-22T13:21:49.512Z,12.00
2017-10-22T13:24:16.237Z,12.00
2017-10-22T13:26:43.243Z,11.90
2017-10-22T13:29:09.803Z,11.90
2017-10-22T13:31:36.922Z,11.90
2017-10-22T13:34:04.029Z,11.80
2017-10-22T13:36:30.751Z,11.80
2017-10-22T13:38:57.500Z,11.90
2017-10-22T13:41:24.537Z,11.90
2017-10-22T13:43:51.561Z,11.90
2017-10-22T13:46:18.287Z,11.90
2017-10-22T13:48:45.418Z,12.00
2017-10-22T13:51:12.448Z,12.00
2017-10-22T13:53:39.581Z,12.00
2017-10-22T13:56:06.587Z,11.90
2017-10-22T13:58:33.234Z,12.00
2017-10-22T14:01:00.476Z,11.90
2017-10-22T14:03:27.501Z,11.90
2017-10-22T14:05:54.095Z,11.90
2017-10-22T14:08:20.698Z,11.80
2017-10-22T14:10:47.735Z,11.80
2017-10-22T14:13:14.393Z,11.80
2017-10-22T14:15:48.694Z,11.70
2017-10-22T14:18:15.728Z,11.70
2017-10-22T14:20:42.728Z,11.70
2017-10-22T14:23:09.375Z,11.70
2017-10-22T14:25:36.379Z,11.60
2017-10-22T14:28:03.028Z,11.60
2017-10-22T14:30:30.263Z,11.50
2017-10-22T14:32:56.885Z,11.50
2017-10-22T14:35:23.859Z,11.40
2017-10-22T14:37:50.638Z,11.40
2017-10-22T14:40:17.396Z,11.40
2017-10-22T14:42:43.959Z,11.40
2017-10-22T14:45:10.684Z,11.30
2017-10-22T14:47:37.328Z,11.30
2017-10-22T14:50:04.268Z,11.20
2017-10-22T14:52:32.177Z,11.20
2017-10-22T14:54:58.831Z,11.20
2017-10-22T14:57:25.861Z,11.10
2017-10-22T14:59:52.891Z,11.10
2017-10-22T15:02:19.470Z,11.10
2017-10-22T15:04:46.119Z,11.10
2017-10-22T15:07:12.863Z,11.00
2017-10-22T15:09:39.887Z,10.90
2017-10-22T15:12:06.990Z,10.90
2017-10-22T15:14:33.743Z,10.90
2017-10-22T15:17:00.778Z,11.00
2017-10-22T15:19:27.912Z,10.80
2017-10-22T15:21:54.971Z,10.70
2017-10-22T15:24:21.666Z,10.70
2017-10-22T15:26:48.668Z,10.50
2017-10-22T15:29:15.520Z,10.50
2017-10-22T15:31:42.545Z,10.30
2017-10-22T15:34:09.579Z,10.30
2017-10-22T15:36:36.610Z,10.30
2017-10-22T15:39:03.742Z,10.30
2017-10-22T15:41:30.882Z,10.30
2017-10-22T15:43:57.909Z,10.30
2017-10-22T15:46:24.939Z,10.30
2017-10-22T15:48:53.096Z,10.20
2017-10-22T15:51:20.084Z,10.00
2017-10-22T15:53:46.746Z,10.10
2017-10-22T15:56:13.881Z,10.10
2017-10-22T15:58:40.883Z,10.10
2017-10-22T16:01:07.530Z,10.10
2017-10-22T16:03:34.483Z,10.20
2017-10-22T16:06:01.159Z,10.20
2017-10-22T16:08:27.734Z,10.20
2017-10-22T16:10:54.300Z,10.20
2017-10-22T16:13:21.355Z,10.10
2017-10-22T16:15:48.360Z,10.10
2017-10-22T16:18:14.982Z,10.10
2017-10-22T16:20:41.729Z,10.10
2017-10-22T16:23:08.731Z,9.80
2017-10-22T16:25:35.380Z,9.80
2017-10-22T16:28:02.411Z,9.60
2017-10-22T16:30:29.444Z,9.50
2017-10-22T16:32:56.378Z,9.50
2017-10-22T16:35:23.397Z,9.40
2017-10-22T16:37:49.962Z,9.40
2017-10-22T16:40:16.573Z,9.30
2017-10-22T16:42:43.265Z,9.20
2017-10-22T16:45:10.211Z,9.10
2017-10-22T16:47:36.813Z,9.10
2017-10-22T16:50:03.948Z,8.90
2017-10-22T16:52:30.979Z,8.90
2017-10-22T16:54:58.011Z,8.90
2017-10-22T16:57:25.015Z,8.90
2017-10-22T16:59:51.763Z,8.90
2017-10-22T17:02:18.767Z,9.00
2017-10-22T17:04:45.619Z,9.00
2017-10-22T17:07:12.932Z,9.20
2017-10-22T17:09:39.551Z,9.20
2017-10-22T17:12:06.199Z,9.10
2017-10-22T17:14:32.821Z,9.10
2017-10-22T17:16:59.853Z,9.00
2017-10-22T17:19:26.883Z,8.90
2017-10-22T17:21:54.453Z,8.80
2017-10-22T17:24:21.008Z,8.80
2017-10-22T17:26:47.611Z,8.80
2017-10-22T17:29:14.251Z,8.70
2017-10-22T17:31:40.804Z,8.70
2017-10-22T17:34:08.240Z,8.70
2017-10-22T17:36:35.448Z,8.70
2017-10-22T17:39:02.007Z,8.70
2017-10-22T17:41:29.067Z,8.70
2017-10-22T17:43:55.623Z,8.70
2017-10-22T17:46:22.183Z,8.60
2017-10-22T17:48:50.000Z,8.60
2017-10-22T17:51:16.624Z,8.60
2017-10-22T17:53:43.600Z,8.60
2017-10-22T17:56:10.397Z,8.60
2017-10-22T17:58:37.423Z,8.30
2017-10-22T18:01:05.481Z,8.30
2017-10-22T18:03:32.510Z,8.20
2017-10-22T18:05:59.111Z,8.20
2017-10-22T18:08:25.754Z,8.20
2017-10-22T18:10:53.298Z,8.30
2017-10-22T18:13:20.308Z,8.30
2017-10-22T18:15:46.950Z,8.30
2017-10-22T18:18:13.587Z,8.30
2017-10-22T18:20:40.143Z,8.30
2017-10-22T18:23:06.709Z,8.30
2017-10-22T18:25:33.340Z,8.00
2017-10-22T18:28:06.880Z,7.80
2017-10-22T18:30:33.657Z,7.60
2017-10-22T18:33:00.281Z,7.40
2017-10-22T18:35:26.903Z,7.30
2017-10-22T18:37:53.683Z,7.20
2017-10-22T18:40:20.451Z,7.20
2017-10-22T18:42:47.462Z,7.10
2017-10-22T18:45:14.488Z,7.00
2017-10-22T18:47:41.187Z,7.00
2017-10-22T18:50:09.671Z,7.10
2017-10-22T18:52:36.524Z,7.10
2017-10-22T18:55:03.349Z,7.20
2017-10-22T18:57:29.918Z,7.30
2017-10-22T18:59:56.805Z,7.40
2017-10-22T19:02:24.857Z,7.40
2017-10-22T19:04:51.986Z,7.40
2017-10-22T19:07:18.812Z,7.40
2017-10-22T19:09:45.432Z,7.40
2017-10-22T19:12:12.155Z,7.30
2017-10-22T19:14:38.858Z,7.40
2017-10-22T19:17:05.499Z,7.40
2017-10-22T19:19:33.042Z,7.40
2017-10-22T19:21:59.974Z,7.40
2017-10-22T19:24:26.975Z,7.40
2017-10-22T19:26:53.535Z,7.30
2017-10-22T19:29:20.518Z,7.30
2017-10-22T19:31:47.075Z,7.30
2017-10-22T19:34:14.080Z,7.30
2017-10-22T19:36:40.721Z,7.30
2017-10-22T19:39:07.444Z,7.30
2017-10-22T19:41:34.451Z,7.40
2017-10-22T19:44:01.201Z,7.40
2017-10-22T19:46:28.948Z,7.30
2017-10-22T19:48:56.197Z,7.30
2017-10-22T19:51:23.418Z,7.40
2017-10-22T19:53:50.347Z,7.30
2017-10-22T19:56:16.900Z,7.30
2017-10-22T19:58:43.510Z,7.30
2017-10-22T20:01:10.111Z,7.40
2017-10-22T20:03:37.138Z,7.30
2017-10-22T20:06:05.343Z,7.30
2017-10-22T20:08:31.913Z,7.30
2017-10-22T20:10:59.479Z,7.40
2017-10-22T20:13:26.467Z,7.40
2017-10-22T20:15:53.120Z,7.40
2017-10-22T20:18:20.602Z,7.50
2017-10-22T20:20:48.185Z,7.50
2017-10-22T20:23:14.795Z,7.50
2017-10-22T20:25:41.367Z,7.50
2017-10-22T20:28:08.072Z,7.40
2017-10-22T20:30:35.095Z,7.50
2017-10-22T20:33:02.044Z,7.50
2017-10-22T20:35:28.715Z,7.50
2017-10-22T20:37:55.792Z,7.50
2017-10-22T20:40:22.706Z,7.50
2017-10-22T20:42:49.960Z,7.60
2017-10-22T20:45:16.616Z,7.60
2017-10-22T20:47:43.287Z,7.60
2017-10-22T20:50:10.288Z,7.60
2017-10-22T20:52:36.839Z,7.60
2017-10-22T20:55:03.936Z,7.60
2017-10-22T20:57:30.668Z,7.60
2017-10-22T20:59:57.235Z,7.60
2017-10-22T21:02:24.104Z,7.60
2017-10-22T21:04:50.754Z,7.60
2017-10-22T21:07:17.376Z,7.60
2017-10-22T21:09:44.007Z,7.60
2017-10-22T21:12:11.334Z,7.60
2017-10-22T21:14:38.341Z,7.60
2017-10-22T21:17:04.985Z,7.60
2017-10-22T21:19:31.986Z,7.70
2017-10-22T21:21:58.643Z,7.70
2017-10-22T21:24:25.643Z,7.70
2017-10-22T21:26:52.394Z,7.70
2017-10-22T21:29:19.423Z,7.70
2017-10-22T21:31:46.426Z,7.70
2017-10-22T21:34:13.279Z,7.70
2017-10-22T21:36:40.309Z,7.70
2017-10-22T21:39:07.414Z,7.70
2017-10-22T21:41:34.268Z,7.70
2017-10-22T21:44:00.994Z,7.70
2017-10-22T21:46:27.616Z,7.70
2017-10-22T21:48:54.218Z,7.70
2017-10-22T21:51:20.835Z,7.70
2017-10-22T21:53:47.391Z,7.70
2017-10-22T21:56:14.467Z,7.60
2017-10-22T21:58:41.027Z,7.60
2017-10-22T22:01:07.959Z,7.70
2017-10-22T22:03:34.991Z,7.70
2017-10-22T22:06:01.555Z,7.70
2017-10-22T22:08:28.103Z,7.70
2017-10-22T22:10:54.699Z,7.70
2017-10-22T22:13:21.275Z,7.70
2017-10-22T22:15:48.199Z,7.60
2017-10-22T22:18:15.179Z,7.60
2017-10-22T22:20:41.730Z,7.60
2017-10-22T22:23:08.283Z,7.60
2017-10-22T22:25:35.031Z,7.70
2017-10-22T22:28:01.600Z,7.60
2017-10-22T22:30:28.167Z,7.60
2017-10-22T22:32:54.769Z,7.60
2017-10-22T22:35:21.323Z,7.60
2017-10-22T22:37:47.867Z,7.60
2017-10-22T22:40:14.563Z,7.50
2017-10-22T22:42:41.211Z,7.50
2017-10-22T22:45:07.763Z,7.50
2017-10-22T22:47:34.731Z,7.40
2017-10-22T22:50:01.292Z,7.40
2017-10-22T22:52:27.843Z,7.40
2017-10-22T22:54:54.454Z,7.40
2017-10-22T22:57:21.020Z,7.40
2017-10-22T22:59:47.563Z,7.40
2017-10-22T23:02:14.168Z,7.40
2017-10-22T23:04:40.724Z,7.40
2017-10-22T23:07:07.652Z,7.40
2017-10-22T23:09:34.667Z,7.40
2017-10-22T23:12:01.232Z,7.40
2017-10-22T23:14:27.802Z,7.40
2017-10-22T23:16:54.407Z,7.40
2017-10-22T23:19:20.971Z,7.40
2017-10-22T23:21:47.890Z,7.40
2017-10-22T23:24:14.879Z,7.40
2017-10-22T23:26:41.474Z,7.40
2017-10-22T23:29:08.036Z,7.40
2017-10-22T23:31:34.735Z,7.30
2017-10-22T23:34:01.295Z,7.40
2017-10-22T23:36:27.851Z,7.30
2017-10-22T23:38:54.540Z,7.30
2017-10-22T23:41:21.103Z,7.30
2017-10-22T23:43:47.690Z,7.30
2017-10-22T23:46:14.670Z,7.30
2017-10-22T23:48:41.228Z,7.30
2017-10-22T23:51:07.781Z,7.30
2017-10-22T23:53:34.402Z,7.30
2017-10-22T23:56:00.960Z,7.20
2017-10-22T23:58:27.612Z,7.20
